Pagina principale
METAR-TAF:

METAR-TAF

Aeroporti :

Aeroporto di Milano-Linate

Milano, Italia

latitudine: 45-26N, longitudine: 009-17E, altezza: 107 m

Osservazione

Il bollettino è stato emesso 21 minuti fa, alle 00:20 UTC
Vento 3 kt da sud-ovest, variando fra sud/sud-ovest e ovest
Temperature 18°C
Umidità 94%
Pressione 1016 hPa
Visibilità 10 km o più
Nuvoloso ad un'altezza di 6000 ft

METAR: LIML 280020Z 23003KT 200V270 9999 BKN060 18/17 Q1016 NOSIG

Ora: 02:41 (00:41 UTC)

Previsione

Il bollettino è stato emesso 1 ora e 41 minuti fa, alle 23:00 UTC
Previsione valida dal 28 alle 00 UTC al 28 alle 24 UTC
Vento 5 kt da direzioni variabili
Visibilità 10 km o più
Nuvoloso ad un'altezza di 4000 ft
Temporaneamente
dal 28 alle 00 UTC al 28 alle 02 UTC
temporale, pioggia
Temporaneamente
dal 28 alle 12 UTC al 28 alle 15 UTC
rovesci di pioggia,

TAF: LIML 272300Z 2800/2824 VRB05KT 9999 BKN040 TEMPO 2800/2802 TSRA TEMPO 2812/2815 SHRA

Osservazioni e previsioni meteorologiche di più di 4000 aeroporti (messaggi METAR e TAF).

Le stazioni disponibili sono rappresentate dai dischi gialli e rossi sulla carta.

Puntare il mouse per vedere il nome della stazione.

Clicca sopra per visualizzare le osservazioni e previsioni meteorologiche.

Per cambiare la mappa : fare clic sui pulsanti verdi con una croce nera per ingrandire, il pulsante verde con un trattino per diminuire, o sulla freccia verde per le mappe adiacenti.


METAR-TAF: